createdAt,value
2018-03-27T00:00:20.091Z,0.00
2018-03-27T00:01:20.100Z,0.00
2018-03-27T00:02:20.122Z,0.00
2018-03-27T00:03:20.144Z,0.00
2018-03-27T00:04:20.159Z,0.00
2018-03-27T00:05:20.196Z,0.00
2018-03-27T00:06:20.193Z,0.00
2018-03-27T00:07:20.210Z,0.00
2018-03-27T00:08:20.226Z,0.00
2018-03-27T00:09:20.240Z,0.00
2018-03-27T00:10:20.266Z,0.00
2018-03-27T00:11:20.275Z,0.00
2018-03-27T00:12:20.295Z,0.00
2018-03-27T00:13:20.315Z,0.00
2018-03-27T00:14:20.333Z,0.00
2018-03-27T00:15:20.348Z,0.00
2018-03-27T00:16:20.373Z,0.00
2018-03-27T00:17:20.382Z,0.00
2018-03-27T00:18:20.400Z,0.00
2018-03-27T00:19:20.423Z,0.00
2018-03-27T00:20:20.438Z,0.00
2018-03-27T00:21:20.453Z,0.00
2018-03-27T00:22:20.474Z,0.00
2018-03-27T00:23:20.484Z,0.00
2018-03-27T00:24:20.504Z,0.00
2018-03-27T00:25:20.524Z,0.00
2018-03-27T00:26:20.540Z,0.00
2018-03-27T00:27:20.560Z,0.00
2018-03-27T00:28:20.576Z,0.00
2018-03-27T00:29:20.588Z,0.00
2018-03-27T00:30:20.611Z,0.00
2018-03-27T00:31:20.631Z,0.00
2018-03-27T00:32:20.641Z,0.00
2018-03-27T00:33:20.665Z,0.00
2018-03-27T00:34:20.684Z,0.00
2018-03-27T00:35:20.700Z,0.00
2018-03-27T00:36:20.716Z,0.00
2018-03-27T00:37:20.732Z,0.00
2018-03-27T00:38:20.751Z,0.00
2018-03-27T00:39:20.766Z,0.00
2018-03-27T00:40:20.787Z,0.00
2018-03-27T00:41:20.800Z,0.00
2018-03-27T00:42:20.821Z,0.00
2018-03-27T00:43:20.836Z,0.00
2018-03-27T00:44:20.857Z,0.00
2018-03-27T00:45:20.876Z,0.00
2018-03-27T00:46:20.888Z,0.00
2018-03-27T00:47:20.903Z,0.00
2018-03-27T00:48:20.928Z,0.00
2018-03-27T00:49:20.938Z,0.00
2018-03-27T00:50:20.962Z,0.00
2018-03-27T00:51:20.976Z,0.00
2018-03-27T00:52:20.995Z,0.00
2018-03-27T00:53:21.011Z,0.00
2018-03-27T00:54:21.028Z,0.00
2018-03-27T00:55:21.050Z,0.00
2018-03-27T00:56:21.063Z,0.00
2018-03-27T00:57:21.084Z,0.00
2018-03-27T00:58:21.098Z,0.00
2018-03-27T00:59:21.118Z,0.00
2018-03-27T01:00:21.140Z,0.00
2018-03-27T01:01:21.147Z,0.00
2018-03-27T01:02:21.165Z,0.00
2018-03-27T01:03:21.192Z,0.00
2018-03-27T01:04:21.203Z,0.00
2018-03-27T01:05:21.227Z,0.00
2018-03-27T01:06:21.238Z,0.00
2018-03-27T01:07:21.286Z,0.00
2018-03-27T01:08:21.279Z,0.00
2018-03-27T01:09:21.287Z,0.00
2018-03-27T01:10:21.312Z,0.00
2018-03-27T01:11:21.327Z,0.00
2018-03-27T01:12:21.341Z,0.00
2018-03-27T01:13:21.368Z,0.00
2018-03-27T01:14:21.376Z,0.00
2018-03-27T01:15:21.407Z,0.00
2018-03-27T01:16:21.412Z,0.00
2018-03-27T01:17:21.436Z,0.00
2018-03-27T01:18:21.449Z,0.00
2018-03-27T01:19:21.469Z,0.00
2018-03-27T01:20:21.489Z,0.00
2018-03-27T01:21:21.498Z,0.00
2018-03-27T01:22:21.515Z,0.00
2018-03-27T01:23:21.542Z,0.00
2018-03-27T01:24:21.558Z,0.00
2018-03-27T01:25:21.570Z,0.00
2018-03-27T01:26:21.594Z,0.00
2018-03-27T01:27:21.605Z,0.00
2018-03-27T01:28:21.624Z,0.00
2018-03-27T01:29:21.643Z,0.00
2018-03-27T01:30:21.664Z,0.00
2018-03-27T01:31:21.674Z,0.00
2018-03-27T01:32:21.699Z,0.00
2018-03-27T01:33:21.714Z,0.00
2018-03-27T01:34:21.746Z,0.00
2018-03-27T01:35:21.754Z,0.00
2018-03-27T01:36:21.768Z,0.00
2018-03-27T01:37:21.782Z,0.00
2018-03-27T01:38:21.800Z,0.00
2018-03-27T01:39:21.820Z,0.00
2018-03-27T01:40:21.836Z,0.00
2018-03-27T01:41:21.854Z,0.00
2018-03-27T01:42:21.873Z,0.00
2018-03-27T01:43:21.888Z,0.00
2018-03-27T01:44:21.909Z,0.00
2018-03-27T01:45:21.923Z,0.00
2018-03-27T01:46:21.943Z,0.00
2018-03-27T01:47:21.959Z,0.00
2018-03-27T01:48:21.980Z,0.00
2018-03-27T01:49:21.994Z,0.00
2018-03-27T01:50:22.017Z,0.00
2018-03-27T01:51:22.033Z,0.00
2018-03-27T01:52:22.047Z,0.00
2018-03-27T01:53:22.068Z,0.00
2018-03-27T01:54:22.090Z,0.00
2018-03-27T01:55:22.100Z,0.00
2018-03-27T01:56:22.122Z,0.00
2018-03-27T01:57:22.140Z,0.00
2018-03-27T01:58:22.154Z,0.00
2018-03-27T01:59:22.174Z,0.00
2018-03-27T02:00:22.189Z,0.00
2018-03-27T02:01:22.210Z,0.00
2018-03-27T02:02:22.229Z,0.00
2018-03-27T02:03:22.240Z,0.00
2018-03-27T02:04:22.266Z,0.00
2018-03-27T02:05:22.276Z,0.00
2018-03-27T02:06:22.293Z,0.00
2018-03-27T02:07:22.319Z,0.00
2018-03-27T02:08:22.329Z,0.00
2018-03-27T02:09:22.357Z,0.00
2018-03-27T02:10:22.367Z,0.00
2018-03-27T02:11:22.387Z,0.00
2018-03-27T02:12:22.408Z,0.00
2018-03-27T02:13:22.417Z,0.00
2018-03-27T02:14:22.444Z,0.00
2018-03-27T02:15:22.456Z,0.00
2018-03-27T02:16:22.471Z,0.00
2018-03-27T02:17:22.496Z,0.00
2018-03-27T02:18:22.507Z,0.00
2018-03-27T02:19:22.532Z,0.00
2018-03-27T02:20:22.549Z,0.00
2018-03-27T02:21:22.563Z,0.00
2018-03-27T02:22:22.585Z,0.00
2018-03-27T02:23:22.595Z,0.00
2018-03-27T02:24:22.616Z,0.00
2018-03-27T02:25:22.636Z,0.00
2018-03-27T02:26:22.653Z,0.00
2018-03-27T02:27:22.670Z,0.00
2018-03-27T02:28:22.684Z,0.00
2018-03-27T02:29:22.716Z,0.00
2018-03-27T02:30:22.726Z,0.00
2018-03-27T02:31:22.743Z,0.00
2018-03-27T02:32:22.764Z,0.00
2018-03-27T02:33:22.773Z,0.00
2018-03-27T02:34:22.798Z,0.00
2018-03-27T02:35:22.809Z,0.00
2018-03-27T02:36:22.828Z,0.00
2018-03-27T02:37:22.843Z,0.00
2018-03-27T02:38:22.863Z,0.00
2018-03-27T02:39:22.885Z,0.00
2018-03-27T02:40:22.898Z,0.00
2018-03-27T02:41:22.923Z,0.00
2018-03-27T02:42:22.938Z,0.00
2018-03-27T02:43:22.956Z,0.00
2018-03-27T02:44:22.972Z,0.00
2018-03-27T02:45:22.993Z,0.00
2018-03-27T02:46:23.012Z,0.00
2018-03-27T02:47:23.025Z,0.00
2018-03-27T02:48:23.046Z,0.00
2018-03-27T02:49:23.060Z,0.00
2018-03-27T02:50:23.088Z,0.00
2018-03-27T02:51:23.096Z,0.00
2018-03-27T02:52:23.116Z,0.00
2018-03-27T02:53:23.135Z,0.00
2018-03-27T02:54:23.151Z,0.00
2018-03-27T02:55:23.166Z,0.00
2018-03-27T02:56:23.191Z,0.00
2018-03-27T02:57:23.199Z,0.00
2018-03-27T02:58:23.223Z,0.00
2018-03-27T02:59:23.241Z,0.00
2018-03-27T03:00:23.255Z,0.00
2018-03-27T03:01:23.280Z,0.00
2018-03-27T03:02:23.293Z,0.00
2018-03-27T03:03:23.315Z,0.00
2018-03-27T03:04:23.333Z,0.00
2018-03-27T03:05:23.348Z,0.00
2018-03-27T03:06:23.369Z,0.00
2018-03-27T03:07:23.378Z,0.00
2018-03-27T03:08:23.405Z,0.00
2018-03-27T03:09:23.416Z,0.00
2018-03-27T03:10:23.431Z,0.00
2018-03-27T03:11:23.452Z,0.00
2018-03-27T03:12:23.468Z,0.00
2018-03-27T03:13:23.489Z,0.00
2018-03-27T03:14:23.505Z,0.00
2018-03-27T03:15:23.526Z,0.00
2018-03-27T03:16:23.547Z,0.00
2018-03-27T03:17:23.557Z,0.00
2018-03-27T03:18:23.578Z,0.00
2018-03-27T03:19:23.627Z,0.00
2018-03-27T03:20:23.610Z,0.00
2018-03-27T03:21:23.636Z,0.00
2018-03-27T03:22:23.649Z,0.00
2018-03-27T03:23:23.664Z,0.00
2018-03-27T03:24:23.680Z,0.00
2018-03-27T03:25:23.698Z,0.00
2018-03-27T03:26:23.718Z,0.00
2018-03-27T03:27:23.732Z,0.00
2018-03-27T03:28:23.752Z,0.00
2018-03-27T03:29:23.772Z,0.00
2018-03-27T03:30:23.792Z,0.00
2018-03-27T03:31:23.855Z,0.00
2018-03-27T03:32:23.820Z,0.00
2018-03-27T03:33:23.844Z,0.00
2018-03-27T03:34:23.858Z,0.00
2018-03-27T03:35:23.878Z,0.00
2018-03-27T03:36:23.898Z,0.00
2018-03-27T03:37:23.906Z,0.00
2018-03-27T03:38:23.927Z,0.00
2018-03-27T03:39:23.950Z,0.00
2018-03-27T03:40:23.962Z,0.00
2018-03-27T03:41:23.975Z,0.00
2018-03-27T03:42:23.994Z,0.00
2018-03-27T03:43:24.014Z,0.00
2018-03-27T03:44:24.028Z,0.00
2018-03-27T03:45:24.053Z,0.00
2018-03-27T03:46:24.064Z,0.00
2018-03-27T03:47:24.085Z,0.00
2018-03-27T03:48:24.100Z,0.00
2018-03-27T03:49:24.120Z,0.00
2018-03-27T03:50:24.138Z,0.00
2018-03-27T03:51:24.152Z,0.00
2018-03-27T03:52:24.173Z,0.00
2018-03-27T03:53:24.187Z,0.00
2018-03-27T03:54:24.207Z,0.00
2018-03-27T03:55:24.221Z,0.00
2018-03-27T03:56:24.237Z,0.00
2018-03-27T03:57:24.255Z,0.00
2018-03-27T03:58:24.279Z,0.00
2018-03-27T03:59:24.294Z,0.00
2018-03-27T04:00:24.363Z,0.00
2018-03-27T04:01:24.328Z,0.00
2018-03-27T04:02:24.345Z,0.00
2018-03-27T04:03:24.365Z,0.00
2018-03-27T04:04:24.374Z,0.00
2018-03-27T04:05:24.400Z,0.00
2018-03-27T04:06:24.411Z,0.00
2018-03-27T04:07:24.432Z,0.00
2018-03-27T04:08:24.453Z,0.00
2018-03-27T04:09:24.461Z,0.00
2018-03-27T04:10:24.483Z,0.00
2018-03-27T04:11:24.509Z,0.00
2018-03-27T04:12:24.516Z,0.00
2018-03-27T04:13:24.535Z,0.00
2018-03-27T04:14:24.547Z,0.00
2018-03-27T04:15:24.567Z,0.00
2018-03-27T04:16:24.587Z,0.00
2018-03-27T04:17:24.606Z,0.00
2018-03-27T04:18:24.618Z,0.00
2018-03-27T04:19:24.639Z,0.00
2018-03-27T04:20:24.659Z,0.00
2018-03-27T04:21:24.666Z,0.00
2018-03-27T04:22:24.695Z,0.00
2018-03-27T04:23:24.705Z,0.00
2018-03-27T04:24:24.720Z,0.00
2018-03-27T04:25:24.743Z,0.00
2018-03-27T04:26:24.758Z,0.00
2018-03-27T04:27:24.772Z,0.00
2018-03-27T04:28:24.792Z,0.00
2018-03-27T04:29:24.805Z,0.00
2018-03-27T04:30:24.828Z,0.00
2018-03-27T04:31:24.843Z,0.00
2018-03-27T04:32:24.857Z,0.00
2018-03-27T04:33:24.871Z,0.00
2018-03-27T04:34:24.896Z,0.00
2018-03-27T04:35:24.905Z,0.00
2018-03-27T04:36:24.930Z,0.00
2018-03-27T04:37:24.939Z,0.00
2018-03-27T04:38:24.955Z,0.00
2018-03-27T04:39:24.986Z,0.00
2018-03-27T04:40:24.990Z,0.00
2018-03-27T04:41:25.016Z,0.00
2018-03-27T04:42:25.030Z,0.00
2018-03-27T04:43:25.044Z,4.00
2018-03-27T04:44:25.063Z,0.00
2018-03-27T04:45:25.078Z,4.00
2018-03-27T04:46:25.094Z,4.00
2018-03-27T04:47:25.117Z,4.00
2018-03-27T04:48:25.131Z,0.00
2018-03-27T04:49:25.148Z,4.00
2018-03-27T04:50:25.159Z,0.00
2018-03-27T04:51:25.184Z,4.00
2018-03-27T04:52:25.204Z,4.00
2018-03-27T04:53:25.214Z,8.00
2018-03-27T04:54:25.235Z,8.00
2018-03-27T04:55:25.244Z,12.00
2018-03-27T04:56:25.265Z,12.00
2018-03-27T04:57:25.284Z,12.00
2018-03-27T04:58:25.301Z,16.00
2018-03-27T04:59:25.318Z,16.00
2018-03-27T05:00:25.338Z,20.00
2018-03-27T05:01:25.345Z,24.00
2018-03-27T05:02:25.397Z,24.00
2018-03-27T05:03:25.449Z,32.00
2018-03-27T05:04:25.397Z,36.00
2018-03-27T05:05:25.421Z,40.00
2018-03-27T05:06:25.461Z,44.00
2018-03-27T05:07:25.454Z,56.00
2018-03-27T05:08:25.472Z,60.00
2018-03-27T05:09:25.556Z,72.00
2018-03-27T05:10:25.504Z,80.00
2018-03-27T05:11:25.520Z,92.00
2018-03-27T05:12:25.532Z,104.00
2018-03-27T05:13:25.557Z,116.00
2018-03-27T05:14:25.605Z,132.00
2018-03-27T05:15:25.584Z,144.00
2018-03-27T05:16:25.608Z,160.00
2018-03-27T05:17:25.620Z,172.00
2018-03-27T05:18:25.649Z,188.00
2018-03-27T05:19:25.726Z,208.00
2018-03-27T05:20:25.670Z,224.00
2018-03-27T05:21:25.690Z,244.00
2018-03-27T05:22:25.705Z,264.00
2018-03-27T05:23:25.726Z,288.00
2018-03-27T05:24:25.735Z,308.00
2018-03-27T05:25:25.759Z,336.00
2018-03-27T05:26:25.792Z,360.00
2018-03-27T05:27:25.786Z,388.00
2018-03-27T05:28:25.810Z,416.00
2018-03-27T05:29:25.822Z,448.00
2018-03-27T05:30:25.843Z,480.00
2018-03-27T05:31:25.852Z,516.00
2018-03-27T05:32:25.873Z,556.00
2018-03-27T05:33:25.891Z,596.00
2018-03-27T05:34:25.908Z,644.00
2018-03-27T05:35:25.928Z,684.00
2018-03-27T05:36:25.945Z,736.00
2018-03-27T05:37:25.964Z,784.00
2018-03-27T05:38:25.979Z,836.00
2018-03-27T05:39:25.986Z,884.00
2018-03-27T05:40:26.012Z,932.00
2018-03-27T05:41:26.020Z,980.00
2018-03-27T05:42:26.036Z,1032.00
2018-03-27T05:43:26.061Z,1084.00
2018-03-27T05:44:26.071Z,1124.00
2018-03-27T05:45:26.097Z,1160.00
2018-03-27T05:46:26.103Z,1200.00
2018-03-27T05:47:26.132Z,1240.00
2018-03-27T05:48:26.148Z,1284.00
2018-03-27T05:49:26.162Z,1336.00
2018-03-27T05:50:26.171Z,1400.00
2018-03-27T05:51:26.193Z,1468.00
2018-03-27T05:52:26.207Z,1520.00
2018-03-27T05:53:26.225Z,1568.00
2018-03-27T05:54:26.237Z,1620.00
2018-03-27T05:55:26.262Z,1676.00
2018-03-27T05:56:26.278Z,1744.00
2018-03-27T05:57:26.290Z,1836.00
2018-03-27T05:58:26.312Z,1956.00
2018-03-27T05:59:26.322Z,2112.00
2018-03-27T06:00:26.341Z,2272.00
2018-03-27T06:01:26.363Z,2380.00
2018-03-27T06:02:26.372Z,2472.00
2018-03-27T06:03:26.395Z,2576.00
2018-03-27T06:04:26.410Z,2688.00
2018-03-27T06:05:26.426Z,2816.00
2018-03-27T06:06:26.438Z,2976.00
2018-03-27T06:07:26.462Z,3160.00
2018-03-27T06:08:26.476Z,3300.00
2018-03-27T06:09:26.491Z,3444.00
2018-03-27T06:10:26.511Z,3576.00
2018-03-27T06:11:26.527Z,3696.00
2018-03-27T06:12:26.546Z,3820.00
2018-03-27T06:13:26.554Z,3964.00
2018-03-27T06:14:26.581Z,4084.00
2018-03-27T06:15:26.594Z,4220.00
2018-03-27T06:16:26.612Z,4300.00
2018-03-27T06:17:26.629Z,4400.00
2018-03-27T06:18:26.646Z,4492.00
2018-03-27T06:19:26.662Z,4604.00
2018-03-27T06:20:26.673Z,4716.00
2018-03-27T06:21:26.696Z,4828.00
2018-03-27T06:22:26.713Z,4976.00
2018-03-27T06:23:26.728Z,5132.00
2018-03-27T06:24:26.752Z,5348.00
2018-03-27T06:25:26.761Z,6932.00
2018-03-27T06:26:26.777Z,9144.00
2018-03-27T06:27:26.819Z,9536.00
2018-03-27T06:28:26.806Z,9708.00
2018-03-27T06:29:26.831Z,9924.00
2018-03-27T06:30:26.855Z,9916.00
2018-03-27T06:31:26.856Z,9880.00
2018-03-27T06:32:26.881Z,10268.00
2018-03-27T06:33:26.893Z,10640.00
2018-03-27T06:34:26.916Z,11092.00
2018-03-27T06:35:26.924Z,10928.00
2018-03-27T06:36:26.949Z,10284.00
2018-03-27T06:37:26.963Z,7624.00
2018-03-27T06:38:26.976Z,7148.00
2018-03-27T06:39:26.998Z,7900.00
2018-03-27T06:40:27.017Z,7504.00
2018-03-27T06:41:27.034Z,7448.00
2018-03-27T06:42:27.056Z,8656.00
2018-03-27T06:43:27.063Z,10336.00
2018-03-27T06:44:27.086Z,9192.00
2018-03-27T06:45:27.104Z,9048.00
2018-03-27T06:46:27.116Z,9452.00
2018-03-27T06:47:27.142Z,9024.00
2018-03-27T06:48:27.158Z,9752.00
2018-03-27T06:49:27.172Z,11060.00
2018-03-27T06:50:27.186Z,9600.00
2018-03-27T06:51:27.215Z,9660.00
2018-03-27T06:52:27.223Z,10924.00
2018-03-27T06:53:27.240Z,11580.00
2018-03-27T06:54:27.260Z,9964.00
2018-03-27T06:55:27.275Z,9212.00
2018-03-27T06:56:27.347Z,10036.00
2018-03-27T06:57:27.315Z,10372.00
2018-03-27T06:58:27.328Z,12716.00
2018-03-27T06:59:27.353Z,12052.00
2018-03-27T07:00:27.375Z,13020.00
2018-03-27T07:01:27.384Z,12836.00
2018-03-27T07:02:27.408Z,18016.00
2018-03-27T07:03:27.453Z,13112.00
2018-03-27T07:04:27.464Z,15136.00
2018-03-27T07:05:27.517Z,22336.00
2018-03-27T07:06:27.478Z,16512.00
2018-03-27T07:07:27.489Z,20032.00
2018-03-27T07:08:27.517Z,22304.00
2018-03-27T07:09:27.534Z,24416.00
2018-03-27T07:10:27.553Z,24928.00
2018-03-27T07:11:27.571Z,23872.00
2018-03-27T07:12:27.588Z,21600.00
2018-03-27T07:13:27.603Z,21792.00
2018-03-27T07:14:27.634Z,20512.00
2018-03-27T07:15:27.637Z,16288.00
2018-03-27T07:16:27.663Z,20544.00
2018-03-27T07:17:27.681Z,20544.00
2018-03-27T07:18:27.694Z,22912.00
2018-03-27T07:19:27.724Z,20576.00
2018-03-27T07:20:27.781Z,24448.00
2018-03-27T07:21:27.755Z,21696.00
2018-03-27T07:22:27.778Z,20000.00
2018-03-27T07:23:27.801Z,16256.00
2018-03-27T07:24:27.811Z,16104.00
2018-03-27T07:25:27.838Z,16180.00
2018-03-27T07:26:27.853Z,15972.00
2018-03-27T07:27:27.875Z,16992.00
2018-03-27T07:28:27.903Z,16096.00
2018-03-27T07:29:27.914Z,15464.00
2018-03-27T07:30:27.929Z,16320.00
2018-03-27T07:31:27.957Z,15668.00
2018-03-27T07:32:28.026Z,16704.00
2018-03-27T07:33:27.996Z,17216.00
2018-03-27T07:34:28.015Z,14776.00
2018-03-27T07:35:28.027Z,12288.00
2018-03-27T07:36:28.055Z,13600.00
2018-03-27T07:37:28.069Z,15288.00
2018-03-27T07:38:28.094Z,14240.00
2018-03-27T07:39:28.105Z,13936.00
2018-03-27T07:40:28.154Z,11232.00
2018-03-27T07:41:28.150Z,10972.00
2018-03-27T07:42:28.167Z,10944.00
2018-03-27T07:43:28.189Z,10832.00
2018-03-27T07:44:28.206Z,11120.00
2018-03-27T07:45:28.228Z,10672.00
2018-03-27T07:46:28.246Z,9984.00
2018-03-27T07:47:28.261Z,10376.00
2018-03-27T07:48:28.280Z,12744.00
2018-03-27T07:49:28.335Z,11876.00
2018-03-27T07:50:28.315Z,11128.00
2018-03-27T07:51:28.344Z,12908.00
2018-03-27T07:52:28.358Z,11488.00
2018-03-27T07:53:28.375Z,10708.00
2018-03-27T07:54:28.397Z,11808.00
2018-03-27T07:55:28.413Z,12536.00
2018-03-27T07:56:28.434Z,10928.00
2018-03-27T07:57:28.705Z,11396.00
2018-03-27T07:58:28.469Z,12260.00
2018-03-27T07:59:28.485Z,12524.00
2018-03-27T08:00:28.515Z,13464.00
2018-03-27T08:01:28.523Z,16864.00
2018-03-27T08:02:28.543Z,17216.00
2018-03-27T08:03:28.569Z,17664.00
2018-03-27T08:04:28.584Z,17216.00
2018-03-27T08:05:28.600Z,15436.00
2018-03-27T08:06:28.623Z,16016.00
2018-03-27T08:07:28.633Z,18912.00
2018-03-27T08:08:28.655Z,19072.00
2018-03-27T08:09:28.676Z,20192.00
2018-03-27T08:10:28.698Z,21408.00
2018-03-27T08:11:28.708Z,33376.00
2018-03-27T08:12:28.732Z,47072.00
2018-03-27T08:13:28.742Z,31648.00
2018-03-27T08:14:28.763Z,20064.00
2018-03-27T08:15:28.785Z,20288.00
2018-03-27T08:16:28.803Z,25248.00
2018-03-27T08:17:28.828Z,19712.00
2018-03-27T08:18:28.889Z,19264.00
2018-03-27T08:19:28.859Z,19616.00
2018-03-27T08:20:28.885Z,14384.00
2018-03-27T08:21:28.902Z,10988.00
2018-03-27T08:22:28.916Z,9788.00
2018-03-27T08:23:28.943Z,10232.00
2018-03-27T08:24:28.965Z,10100.00
2018-03-27T08:25:28.989Z,10392.00
2018-03-27T08:26:28.998Z,10516.00
2018-03-27T08:27:29.025Z,10064.00
2018-03-27T08:28:29.031Z,9604.00
2018-03-27T08:29:29.057Z,9724.00
2018-03-27T08:30:29.072Z,9740.00
2018-03-27T08:31:29.088Z,9580.00
2018-03-27T08:32:29.117Z,10088.00
2018-03-27T08:33:29.137Z,9736.00
2018-03-27T08:34:29.144Z,10984.00
2018-03-27T08:35:29.174Z,11644.00
2018-03-27T08:36:29.238Z,11296.00
2018-03-27T08:37:29.211Z,11084.00
2018-03-27T08:38:29.227Z,11836.00
2018-03-27T08:39:29.239Z,11980.00
2018-03-27T08:40:29.266Z,12388.00
2018-03-27T08:41:29.275Z,12248.00
2018-03-27T08:42:29.304Z,12140.00
2018-03-27T08:43:29.315Z,13628.00
2018-03-27T08:44:29.342Z,19488.00
2018-03-27T08:45:29.357Z,19680.00
2018-03-27T08:46:29.370Z,24608.00
2018-03-27T08:47:29.391Z,23232.00
2018-03-27T08:48:29.416Z,23104.00
2018-03-27T08:49:29.434Z,22144.00
2018-03-27T08:50:29.450Z,22304.00
2018-03-27T08:51:29.467Z,22528.00
2018-03-27T08:52:29.484Z,20512.00
2018-03-27T08:53:29.514Z,20160.00
2018-03-27T08:54:29.523Z,20992.00
2018-03-27T08:55:29.545Z,25056.00
2018-03-27T08:56:29.567Z,30560.00
2018-03-27T08:57:29.580Z,39648.00
2018-03-27T08:58:29.601Z,82784.00
2018-03-27T08:59:29.623Z,87232.00
2018-03-27T09:00:29.638Z,63328.00
2018-03-27T09:01:29.661Z,80032.00
2018-03-27T09:02:29.674Z,93952.00
2018-03-27T09:03:29.705Z,89952.00
2018-03-27T09:04:29.717Z,67776.00
2018-03-27T09:05:29.745Z,50144.00
2018-03-27T09:06:29.759Z,59328.00
2018-03-27T09:07:29.784Z,44736.00
2018-03-27T09:08:29.802Z,73344.00
2018-03-27T09:09:29.826Z,84000.00
2018-03-27T09:10:29.848Z,84256.00
2018-03-27T09:11:29.867Z,80032.00
2018-03-27T09:12:29.894Z,79616.00
2018-03-27T09:13:29.912Z,56096.00
2018-03-27T09:14:29.932Z,79744.00
2018-03-27T09:15:29.964Z,63168.00
2018-03-27T09:16:29.978Z,83296.00
2018-03-27T09:17:30.005Z,72192.00
2018-03-27T09:18:30.027Z,77920.00
2018-03-27T09:19:30.048Z,75936.00
2018-03-27T09:20:30.076Z,82816.00
2018-03-27T09:21:30.101Z,80256.00
2018-03-27T09:22:30.124Z,77920.00
2018-03-27T09:23:30.153Z,75040.00
2018-03-27T09:24:30.172Z,78912.00
2018-03-27T09:25:30.202Z,80000.00
2018-03-27T09:26:30.226Z,72672.00
2018-03-27T09:27:30.246Z,72480.00
2018-03-27T09:28:30.278Z,84512.00
2018-03-27T09:29:30.292Z,84608.00
2018-03-27T09:30:30.329Z,76992.00
2018-03-27T09:31:30.344Z,73472.00
2018-03-27T09:32:30.379Z,79136.00
2018-03-27T09:33:30.395Z,79296.00
2018-03-27T09:34:30.422Z,74592.00
2018-03-27T09:35:30.456Z,76384.00
2018-03-27T09:36:30.473Z,75552.00
2018-03-27T09:37:30.512Z,77760.00
2018-03-27T09:38:30.534Z,80960.00
2018-03-27T09:39:30.551Z,82016.00
2018-03-27T09:40:30.581Z,76096.00
2018-03-27T09:41:30.610Z,82080.00
2018-03-27T09:42:30.630Z,74208.00
2018-03-27T09:43:30.665Z,82176.00
2018-03-27T09:44:30.694Z,78176.00
2018-03-27T09:45:30.733Z,77152.00
2018-03-27T09:46:30.745Z,78400.00
2018-03-27T09:47:30.773Z,76256.00
2018-03-27T09:48:30.940Z,74944.00
2018-03-27T09:49:30.829Z,77344.00
2018-03-27T09:50:30.856Z,74144.00
2018-03-27T09:51:30.875Z,80160.00
2018-03-27T09:52:30.910Z,81376.00
2018-03-27T09:53:30.928Z,82816.00
2018-03-27T09:54:30.955Z,85536.00
2018-03-27T09:55:30.992Z,85984.00
2018-03-27T09:56:31.020Z,81984.00
2018-03-27T09:57:31.044Z,56928.00
2018-03-27T09:58:31.089Z,69984.00
2018-03-27T09:59:31.094Z,82528.00
2018-03-27T10:00:31.123Z,85312.00
2018-03-27T10:01:31.153Z,80800.00
2018-03-27T10:02:31.180Z,83168.00
2018-03-27T10:03:31.211Z,86784.00
2018-03-27T10:04:31.236Z,88800.00
2018-03-27T10:05:31.260Z,87776.00
2018-03-27T10:06:31.296Z,80448.00
2018-03-27T10:07:31.320Z,75904.00
2018-03-27T10:08:31.344Z,70560.00
2018-03-27T10:09:31.380Z,82912.00
2018-03-27T10:10:31.403Z,82272.00
2018-03-27T10:11:31.436Z,78336.00
2018-03-27T10:12:31.465Z,81696.00
2018-03-27T10:13:31.484Z,82752.00
2018-03-27T10:14:31.518Z,85216.00
2018-03-27T10:15:31.544Z,49984.00
2018-03-27T10:16:31.569Z,72064.00
2018-03-27T10:17:31.606Z,82528.00
2018-03-27T10:18:31.625Z,88384.00
2018-03-27T10:19:31.662Z,87168.00
2018-03-27T10:20:31.685Z,84160.00
2018-03-27T10:21:31.713Z,83104.00
2018-03-27T10:22:31.743Z,84512.00
2018-03-27T10:23:31.767Z,84800.00
2018-03-27T10:24:31.800Z,84672.00
2018-03-27T10:25:31.830Z,81792.00
2018-03-27T10:26:31.858Z,82592.00
2018-03-27T10:27:31.883Z,82368.00
2018-03-27T10:28:31.916Z,75200.00
2018-03-27T10:29:31.940Z,74592.00
2018-03-27T10:30:31.968Z,73312.00
2018-03-27T10:31:32.000Z,86368.00
2018-03-27T10:32:32.026Z,81856.00
2018-03-27T10:33:32.096Z,80480.00
2018-03-27T10:34:32.088Z,78944.00
2018-03-27T10:35:32.109Z,84608.00
2018-03-27T10:36:32.146Z,78624.00
2018-03-27T10:37:32.168Z,75424.00
2018-03-27T10:38:32.209Z,70560.00
2018-03-27T10:39:32.233Z,72096.00
2018-03-27T10:40:32.254Z,70528.00
2018-03-27T10:41:32.293Z,75264.00
2018-03-27T10:42:32.314Z,77952.00
2018-03-27T10:43:32.346Z,74688.00
2018-03-27T10:44:32.373Z,71456.00
2018-03-27T10:45:32.402Z,48768.00
2018-03-27T10:46:32.436Z,28960.00
2018-03-27T10:47:32.455Z,60032.00
2018-03-27T10:48:32.487Z,69312.00
2018-03-27T10:49:32.511Z,23520.00
2018-03-27T10:50:32.537Z,21440.00
2018-03-27T10:51:32.572Z,32928.00
2018-03-27T10:52:32.592Z,25504.00
2018-03-27T10:53:32.629Z,17320.00
2018-03-27T10:54:32.655Z,16248.00
2018-03-27T10:55:32.675Z,18240.00
2018-03-27T10:56:32.711Z,21504.00
2018-03-27T10:57:32.728Z,22816.00
2018-03-27T10:58:32.761Z,23584.00
2018-03-27T10:59:32.783Z,20320.00
2018-03-27T11:00:32.813Z,14560.00
2018-03-27T11:01:32.834Z,13268.00
2018-03-27T11:02:32.861Z,12496.00
2018-03-27T11:03:32.893Z,12656.00
2018-03-27T11:04:32.917Z,13568.00
2018-03-27T11:05:32.940Z,15108.00
2018-03-27T11:06:32.969Z,18048.00
2018-03-27T11:07:32.986Z,19200.00
2018-03-27T11:08:33.019Z,21152.00
2018-03-27T11:09:33.041Z,19968.00
2018-03-27T11:10:33.061Z,24128.00
2018-03-27T11:11:33.087Z,28640.00
2018-03-27T11:12:33.118Z,31744.00
2018-03-27T11:13:33.136Z,53696.00
2018-03-27T11:14:33.160Z,38720.00
2018-03-27T11:15:33.188Z,34496.00
2018-03-27T11:16:33.209Z,26336.00
2018-03-27T11:17:33.241Z,35392.00
2018-03-27T11:18:33.260Z,35392.00
2018-03-27T11:19:33.281Z,37024.00
2018-03-27T11:20:33.308Z,32032.00
2018-03-27T11:21:33.329Z,25600.00
2018-03-27T11:22:33.353Z,25376.00
2018-03-27T11:23:33.383Z,28896.00
2018-03-27T11:24:33.768Z,21152.00
2018-03-27T11:25:33.431Z,19072.00
2018-03-27T11:26:33.453Z,18592.00
2018-03-27T11:27:33.477Z,19232.00
2018-03-27T11:28:33.502Z,21312.00
2018-03-27T11:29:33.516Z,31328.00
2018-03-27T11:30:33.547Z,24128.00
2018-03-27T11:31:33.567Z,22240.00
2018-03-27T11:32:33.593Z,21248.00
2018-03-27T11:33:33.611Z,21888.00
2018-03-27T11:34:33.636Z,25248.00
2018-03-27T11:35:33.664Z,41600.00
2018-03-27T11:36:33.682Z,31968.00
2018-03-27T11:37:33.707Z,28064.00
2018-03-27T11:38:33.734Z,27392.00
2018-03-27T11:39:33.749Z,23200.00
2018-03-27T11:40:33.782Z,23200.00
2018-03-27T11:41:33.801Z,31712.00
2018-03-27T11:42:33.819Z,42688.00
2018-03-27T11:43:33.843Z,45408.00
2018-03-27T11:44:33.874Z,50496.00
2018-03-27T11:45:33.889Z,42208.00
2018-03-27T11:46:33.912Z,38464.00
2018-03-27T11:47:33.938Z,44256.00
2018-03-27T11:48:33.964Z,35360.00
2018-03-27T11:49:33.978Z,32256.00
2018-03-27T11:50:34.032Z,54848.00
2018-03-27T11:51:34.026Z,64448.00
2018-03-27T11:52:34.048Z,63488.00
2018-03-27T11:53:34.080Z,61344.00
2018-03-27T11:54:34.175Z,53952.00
2018-03-27T11:55:34.121Z,44896.00
2018-03-27T11:56:34.147Z,45056.00
2018-03-27T11:57:34.173Z,49088.00
2018-03-27T11:58:34.191Z,45952.00
2018-03-27T11:59:34.212Z,58176.00
2018-03-27T12:00:34.244Z,56416.00
2018-03-27T12:01:34.294Z,56032.00
2018-03-27T12:02:34.284Z,64032.00
2018-03-27T12:03:34.319Z,66464.00
2018-03-27T12:04:34.335Z,58400.00
2018-03-27T12:05:34.364Z,57792.00
2018-03-27T12:06:34.388Z,54816.00
2018-03-27T12:07:34.405Z,48800.00
2018-03-27T12:08:34.437Z,41152.00
2018-03-27T12:09:34.453Z,41824.00
2018-03-27T12:10:34.480Z,41856.00
2018-03-27T12:11:34.508Z,33152.00
2018-03-27T12:12:34.535Z,20416.00
2018-03-27T12:13:34.563Z,19072.00
2018-03-27T12:14:34.577Z,18912.00
2018-03-27T12:15:34.605Z,18656.00
2018-03-27T12:16:34.632Z,18208.00
2018-03-27T12:17:34.654Z,17004.00
2018-03-27T12:18:34.685Z,15012.00
2018-03-27T12:19:34.701Z,13912.00
2018-03-27T12:20:34.728Z,13204.00
2018-03-27T12:21:34.755Z,13036.00
2018-03-27T12:22:34.774Z,12644.00
2018-03-27T12:23:34.807Z,12468.00
2018-03-27T12:24:34.828Z,12888.00